sensor_id;sensor_type;location;lat;lon;timestamp;temperature;humidity
12166;DHT22;6146;48.128;11.476;2022-11-18T00:01:20;8.70;99.90
12166;DHT22;6146;48.128;11.476;2022-11-18T00:03:47;8.70;99.90
12166;DHT22;6146;48.128;11.476;2022-11-18T00:06:15;8.60;99.90
12166;DHT22;6146;48.128;11.476;2022-11-18T00:08:41;8.50;99.90
12166;DHT22;6146;48.128;11.476;2022-11-18T00:11:09;8.40;99.90
12166;DHT22;6146;48.128;11.476;2022-11-18T00:13:36;8.50;99.90
12166;DHT22;6146;48.128;11.476;2022-11-18T00:16:21;8.40;99.90
12166;DHT22;6146;48.128;11.476;2022-11-18T00:18:46;8.50;99.90
12166;DHT22;6146;48.128;11.476;2022-11-18T00:21:13;8.50;99.90
12166;DHT22;6146;48.128;11.476;2022-11-18T00:23:39;8.40;99.90
12166;DHT22;6146;48.128;11.476;2022-11-18T00:26:10;8.40;99.90
12166;DHT22;6146;48.128;11.476;2022-11-18T00:28:37;8.40;99.90
12166;DHT22;6146;48.128;11.476;2022-11-18T00:31:10;8.40;99.90
12166;DHT22;6146;48.128;11.476;2022-11-18T00:33:37;8.40;99.90
12166;DHT22;6146;48.128;11.476;2022-11-18T00:36:04;8.40;99.90
12166;DHT22;6146;48.128;11.476;2022-11-18T00:38:29;8.40;99.90
12166;DHT22;6146;48.128;11.476;2022-11-18T00:43:32;8.30;99.90
12166;DHT22;6146;48.128;11.476;2022-11-18T00:45:58;8.30;99.90
12166;DHT22;6146;48.128;11.476;2022-11-18T00:48:24;8.30;99.90
12166;DHT22;6146;48.128;11.476;2022-11-18T00:50:51;8.30;99.90
12166;DHT22;6146;48.128;11.476;2022-11-18T00:53:18;8.40;99.90
12166;DHT22;6146;48.128;11.476;2022-11-18T00:55:43;8.30;99.90
12166;DHT22;6146;48.128;11.476;2022-11-18T00:58:10;8.30;99.90
12166;DHT22;6146;48.128;11.476;2022-11-18T01:00:40;8.30;99.90
12166;DHT22;6146;48.128;11.476;2022-11-18T01:03:06;8.30;99.90
12166;DHT22;6146;48.128;11.476;2022-11-18T01:05:32;8.40;99.90
12166;DHT22;6146;48.128;11.476;2022-11-18T01:07:58;8.40;99.90
12166;DHT22;6146;48.128;11.476;2022-11-18T01:10:23;8.40;99.90
12166;DHT22;6146;48.128;11.476;2022-11-18T01:12:49;8.40;99.90
12166;DHT22;6146;48.128;11.476;2022-11-18T01:15:42;8.40;99.90
12166;DHT22;6146;48.128;11.476;2022-11-18T01:18:08;8.40;99.90
12166;DHT22;6146;48.128;11.476;2022-11-18T01:20:34;8.40;99.90
12166;DHT22;6146;48.128;11.476;2022-11-18T01:23:00;8.50;99.90
12166;DHT22;6146;48.128;11.476;2022-11-18T01:25:27;8.40;99.90
12166;DHT22;6146;48.128;11.476;2022-11-18T01:27:53;8.50;99.90
12166;DHT22;6146;48.128;11.476;2022-11-18T01:30:19;8.50;99.90
12166;DHT22;6146;48.128;11.476;2022-11-18T01:32:44;8.50;99.90
12166;DHT22;6146;48.128;11.476;2022-11-18T01:35:10;8.60;99.90
12166;DHT22;6146;48.128;11.476;2022-11-18T01:37:37;9.70;99.90
12166;DHT22;6146;48.128;11.476;2022-11-18T01:40:04;8.50;99.90
12166;DHT22;6146;48.128;11.476;2022-11-18T01:42:30;8.50;99.90
12166;DHT22;6146;48.128;11.476;2022-11-18T01:47:43;8.50;99.90
12166;DHT22;6146;48.128;11.476;2022-11-18T01:50:10;8.40;99.90
12166;DHT22;6146;48.128;11.476;2022-11-18T01:52:38;8.50;99.90
12166;DHT22;6146;48.128;11.476;2022-11-18T01:55:15;8.40;99.90
12166;DHT22;6146;48.128;11.476;2022-11-18T01:57:43;8.40;99.90
12166;DHT22;6146;48.128;11.476;2022-11-18T02:00:11;8.40;99.90
12166;DHT22;6146;48.128;11.476;2022-11-18T02:02:37;8.40;99.90
12166;DHT22;6146;48.128;11.476;2022-11-18T02:05:05;8.40;99.90
12166;DHT22;6146;48.128;11.476;2022-11-18T02:07:41;8.40;99.90
12166;DHT22;6146;48.128;11.476;2022-11-18T02:10:08;8.40;99.90
12166;DHT22;6146;48.128;11.476;2022-11-18T02:12:34;8.40;99.90
12166;DHT22;6146;48.128;11.476;2022-11-18T02:15:01;8.40;99.90
12166;DHT22;6146;48.128;11.476;2022-11-18T02:23:08;8.40;99.90
12166;DHT22;6146;48.128;11.476;2022-11-18T02:28:55;8.40;99.90
12166;DHT22;6146;48.128;11.476;2022-11-18T02:31:34;8.40;99.90
12166;DHT22;6146;48.128;11.476;2022-11-18T02:34:21;8.30;99.90
12166;DHT22;6146;48.128;11.476;2022-11-18T02:36:54;8.30;99.90
12166;DHT22;6146;48.128;11.476;2022-11-18T02:39:28;8.30;99.90
12166;DHT22;6146;48.128;11.476;2022-11-18T02:41:55;8.40;99.90
12166;DHT22;6146;48.128;11.476;2022-11-18T02:44:24;8.30;99.90
12166;DHT22;6146;48.128;11.476;2022-11-18T02:46:55;8.40;99.90
12166;DHT22;6146;48.128;11.476;2022-11-18T02:49:26;8.30;99.90
12166;DHT22;6146;48.128;11.476;2022-11-18T02:51:53;8.40;99.90
12166;DHT22;6146;48.128;11.476;2022-11-18T02:54:21;8.30;99.90
12166;DHT22;6146;48.128;11.476;2022-11-18T02:56:48;8.30;99.90
12166;DHT22;6146;48.128;11.476;2022-11-18T02:59:19;8.30;99.90
12166;DHT22;6146;48.128;11.476;2022-11-18T03:01:45;8.30;99.90
12166;DHT22;6146;48.128;11.476;2022-11-18T03:04:12;8.30;99.90
12166;DHT22;6146;48.128;11.476;2022-11-18T03:06:47;8.30;99.90
12166;DHT22;6146;48.128;11.476;2022-11-18T03:09:19;8.20;99.90
12166;DHT22;6146;48.128;11.476;2022-11-18T03:11:59;8.20;99.90
12166;DHT22;6146;48.128;11.476;2022-11-18T03:14:46;8.20;99.90
12166;DHT22;6146;48.128;11.476;2022-11-18T03:17:47;8.20;99.90
12166;DHT22;6146;48.128;11.476;2022-11-18T03:20:28;8.20;99.90
12166;DHT22;6146;48.128;11.476;2022-11-18T03:23:18;8.20;99.90
12166;DHT22;6146;48.128;11.476;2022-11-18T03:26:06;8.10;99.90
12166;DHT22;6146;48.128;11.476;2022-11-18T03:31:23;8.20;99.90
12166;DHT22;6146;48.128;11.476;2022-11-18T03:34:00;8.10;99.90
12166;DHT22;6146;48.128;11.476;2022-11-18T03:36:30;8.20;99.90
12166;DHT22;6146;48.128;11.476;2022-11-18T03:38:59;8.10;99.90
12166;DHT22;6146;48.128;11.476;2022-11-18T03:41:29;8.10;99.90
12166;DHT22;6146;48.128;11.476;2022-11-18T03:44:08;8.10;99.90
12166;DHT22;6146;48.128;11.476;2022-11-18T03:46:43;8.10;99.90
12166;DHT22;6146;48.128;11.476;2022-11-18T03:49:13;8.10;99.90
12166;DHT22;6146;48.128;11.476;2022-11-18T03:51:43;8.10;99.90
12166;DHT22;6146;48.128;11.476;2022-11-18T03:54:37;8.10;99.90
12166;DHT22;6146;48.128;11.476;2022-11-18T03:57:07;8.00;99.90
12166;DHT22;6146;48.128;11.476;2022-11-18T03:59:47;8.00;99.90
12166;DHT22;6146;48.128;11.476;2022-11-18T04:02:18;8.00;99.90
12166;DHT22;6146;48.128;11.476;2022-11-18T04:04:46;8.00;99.90
12166;DHT22;6146;48.128;11.476;2022-11-18T04:07:16;7.90;99.90
12166;DHT22;6146;48.128;11.476;2022-11-18T04:09:56;7.90;99.90
12166;DHT22;6146;48.128;11.476;2022-11-18T04:12:24;7.90;99.90
12166;DHT22;6146;48.128;11.476;2022-11-18T04:14:53;7.90;99.90
12166;DHT22;6146;48.128;11.476;2022-11-18T04:17:21;7.90;99.90
12166;DHT22;6146;48.128;11.476;2022-11-18T04:19:47;7.90;99.90
12166;DHT22;6146;48.128;11.476;2022-11-18T04:22:13;7.90;99.90
12166;DHT22;6146;48.128;11.476;2022-11-18T04:24:39;7.90;99.90
12166;DHT22;6146;48.128;11.476;2022-11-18T04:27:05;8.00;99.90
12166;DHT22;6146;48.128;11.476;2022-11-18T04:29:32;8.00;99.90
12166;DHT22;6146;48.128;11.476;2022-11-18T04:31:58;8.00;99.90
12166;DHT22;6146;48.128;11.476;2022-11-18T04:34:24;8.00;99.90
12166;DHT22;6146;48.128;11.476;2022-11-18T04:36:49;8.00;99.90
12166;DHT22;6146;48.128;11.476;2022-11-18T04:39:15;8.00;99.90
12166;DHT22;6146;48.128;11.476;2022-11-18T04:41:43;8.10;99.90
12166;DHT22;6146;48.128;11.476;2022-11-18T04:44:29;8.10;99.90
12166;DHT22;6146;48.128;11.476;2022-11-18T04:46:57;8.00;99.90
12166;DHT22;6146;48.128;11.476;2022-11-18T04:49:23;8.00;99.90
12166;DHT22;6146;48.128;11.476;2022-11-18T04:51:49;8.00;99.90
12166;DHT22;6146;48.128;11.476;2022-11-18T04:54:15;8.00;99.90
12166;DHT22;6146;48.128;11.476;2022-11-18T04:56:41;8.00;99.90
12166;DHT22;6146;48.128;11.476;2022-11-18T04:59:07;8.00;99.90
12166;DHT22;6146;48.128;11.476;2022-11-18T05:01:33;8.00;99.90
12166;DHT22;6146;48.128;11.476;2022-11-18T05:04:00;8.00;99.90
12166;DHT22;6146;48.128;11.476;2022-11-18T05:06:27;8.00;99.90
12166;DHT22;6146;48.128;11.476;2022-11-18T05:08:52;8.10;99.90
12166;DHT22;6146;48.128;11.476;2022-11-18T05:11:18;8.10;99.90
12166;DHT22;6146;48.128;11.476;2022-11-18T05:14:02;8.10;99.90
12166;DHT22;6146;48.128;11.476;2022-11-18T05:16:28;8.10;99.90
12166;DHT22;6146;48.128;11.476;2022-11-18T05:18:54;8.00;99.90
12166;DHT22;6146;48.128;11.476;2022-11-18T05:21:19;8.00;99.90
12166;DHT22;6146;48.128;11.476;2022-11-18T05:23:45;7.90;99.90
12166;DHT22;6146;48.128;11.476;2022-11-18T05:26:10;7.90;99.90
12166;DHT22;6146;48.128;11.476;2022-11-18T05:28:37;7.90;99.90
12166;DHT22;6146;48.128;11.476;2022-11-18T05:31:07;7.90;99.90
12166;DHT22;6146;48.128;11.476;2022-11-18T05:33:32;7.90;99.90
12166;DHT22;6146;48.128;11.476;2022-11-18T05:36:05;7.90;99.90
12166;DHT22;6146;48.128;11.476;2022-11-18T05:38:32;7.90;99.90
12166;DHT22;6146;48.128;11.476;2022-11-18T05:40:58;7.90;99.90
12166;DHT22;6146;48.128;11.476;2022-11-18T05:43:23;7.80;99.90
12166;DHT22;6146;48.128;11.476;2022-11-18T05:45:50;7.80;99.90
12166;DHT22;6146;48.128;11.476;2022-11-18T05:48:17;7.80;99.90
12166;DHT22;6146;48.128;11.476;2022-11-18T05:50:45;7.80;99.90
12166;DHT22;6146;48.128;11.476;2022-11-18T05:53:11;7.70;99.90
12166;DHT22;6146;48.128;11.476;2022-11-18T05:58:12;7.70;99.90
12166;DHT22;6146;48.128;11.476;2022-11-18T06:00:38;7.70;99.90
12166;DHT22;6146;48.128;11.476;2022-11-18T06:03:10;7.70;99.90
12166;DHT22;6146;48.128;11.476;2022-11-18T06:05:37;7.70;99.90
12166;DHT22;6146;48.128;11.476;2022-11-18T06:08:03;7.70;99.90
12166;DHT22;6146;48.128;11.476;2022-11-18T06:10:32;7.60;99.90
12166;DHT22;6146;48.128;11.476;2022-11-18T06:13:03;7.50;99.90
12166;DHT22;6146;48.128;11.476;2022-11-18T06:15:37;7.60;99.90
12166;DHT22;6146;48.128;11.476;2022-11-18T06:18:28;7.60;99.90
12166;DHT22;6146;48.128;11.476;2022-11-18T06:20:57;7.60;99.90
12166;DHT22;6146;48.128;11.476;2022-11-18T06:23:25;7.60;99.90
12166;DHT22;6146;48.128;11.476;2022-11-18T06:25:51;7.60;99.90
12166;DHT22;6146;48.128;11.476;2022-11-18T06:28:18;7.60;99.90
12166;DHT22;6146;48.128;11.476;2022-11-18T06:30:44;7.60;99.90
12166;DHT22;6146;48.128;11.476;2022-11-18T06:33:09;7.60;99.90
12166;DHT22;6146;48.128;11.476;2022-11-18T06:35:35;7.70;99.90
12166;DHT22;6146;48.128;11.476;2022-11-18T06:38:01;7.70;99.90
12166;DHT22;6146;48.128;11.476;2022-11-18T06:40:26;7.70;99.90
12166;DHT22;6146;48.128;11.476;2022-11-18T06:42:52;7.70;99.90
12166;DHT22;6146;48.128;11.476;2022-11-18T06:45:36;7.70;99.90
12166;DHT22;6146;48.128;11.476;2022-11-18T06:48:01;7.70;99.90
12166;DHT22;6146;48.128;11.476;2022-11-18T06:50:28;7.70;99.90
12166;DHT22;6146;48.128;11.476;2022-11-18T06:52:54;7.70;99.90
12166;DHT22;6146;48.128;11.476;2022-11-18T06:55:20;7.70;99.90
12166;DHT22;6146;48.128;11.476;2022-11-18T06:57:46;7.70;99.90
12166;DHT22;6146;48.128;11.476;2022-11-18T07:00:12;7.70;99.90
12166;DHT22;6146;48.128;11.476;2022-11-18T07:02:38;7.70;99.90
12166;DHT22;6146;48.128;11.476;2022-11-18T07:05:04;7.70;99.90
12166;DHT22;6146;48.128;11.476;2022-11-18T07:07:30;7.70;99.90
12166;DHT22;6146;48.128;11.476;2022-11-18T07:09:56;7.70;99.90
12166;DHT22;6146;48.128;11.476;2022-11-18T07:12:21;7.70;99.90
12166;DHT22;6146;48.128;11.476;2022-11-18T07:14:47;7.70;99.90
12166;DHT22;6146;48.128;11.476;2022-11-18T07:17:12;7.80;99.90
12166;DHT22;6146;48.128;11.476;2022-11-18T07:19:39;7.80;99.90
12166;DHT22;6146;48.128;11.476;2022-11-18T07:22:04;7.80;99.90
12166;DHT22;6146;48.128;11.476;2022-11-18T07:24:32;7.80;99.90
12166;DHT22;6146;48.128;11.476;2022-11-18T07:26:57;7.90;99.90
12166;DHT22;6146;48.128;11.476;2022-11-18T07:29:23;8.00;99.90
12166;DHT22;6146;48.128;11.476;2022-11-18T07:31:49;8.10;99.90
12166;DHT22;6146;48.128;11.476;2022-11-18T07:34:14;8.10;99.90
12166;DHT22;6146;48.128;11.476;2022-11-18T07:36:40;8.20;99.90
12166;DHT22;6146;48.128;11.476;2022-11-18T07:39:06;8.30;99.90
12166;DHT22;6146;48.128;11.476;2022-11-18T07:41:32;8.30;99.90
12166;DHT22;6146;48.128;11.476;2022-11-18T07:43:59;8.30;99.90
12166;DHT22;6146;48.128;11.476;2022-11-18T07:46:26;8.30;99.90
12166;DHT22;6146;48.128;11.476;2022-11-18T07:48:53;8.40;99.90
12166;DHT22;6146;48.128;11.476;2022-11-18T07:51:21;8.40;99.90
12166;DHT22;6146;48.128;11.476;2022-11-18T07:53:48;8.40;99.90
12166;DHT22;6146;48.128;11.476;2022-11-18T07:56:14;8.30;99.90
12166;DHT22;6146;48.128;11.476;2022-11-18T07:58:41;8.30;99.90
12166;DHT22;6146;48.128;11.476;2022-11-18T08:01:13;8.30;99.90
12166;DHT22;6146;48.128;11.476;2022-11-18T08:03:39;8.30;99.90
12166;DHT22;6146;48.128;11.476;2022-11-18T08:06:06;8.30;99.90
12166;DHT22;6146;48.128;11.476;2022-11-18T08:08:33;8.30;99.90
12166;DHT22;6146;48.128;11.476;2022-11-18T08:11:00;8.50;99.90
12166;DHT22;6146;48.128;11.476;2022-11-18T08:13:27;8.40;99.90
12166;DHT22;6146;48.128;11.476;2022-11-18T08:15:53;8.40;99.90
12166;DHT22;6146;48.128;11.476;2022-11-18T08:18:19;8.40;99.90
12166;DHT22;6146;48.128;11.476;2022-11-18T08:20:45;8.40;99.90
12166;DHT22;6146;48.128;11.476;2022-11-18T08:23:11;8.40;99.90
12166;DHT22;6146;48.128;11.476;2022-11-18T08:25:38;8.40;99.90
12166;DHT22;6146;48.128;11.476;2022-11-18T08:28:04;8.30;99.90
12166;DHT22;6146;48.128;11.476;2022-11-18T08:30:32;8.30;99.90
12166;DHT22;6146;48.128;11.476;2022-11-18T08:32:58;8.30;99.90
12166;DHT22;6146;48.128;11.476;2022-11-18T08:35:25;8.30;99.90
12166;DHT22;6146;48.128;11.476;2022-11-18T08:37:51;8.30;99.90
12166;DHT22;6146;48.128;11.476;2022-11-18T08:40:17;8.30;99.90
12166;DHT22;6146;48.128;11.476;2022-11-18T08:42:43;8.30;99.90
12166;DHT22;6146;48.128;11.476;2022-11-18T08:45:09;8.30;99.90
12166;DHT22;6146;48.128;11.476;2022-11-18T08:47:35;8.40;99.90
12166;DHT22;6146;48.128;11.476;2022-11-18T08:50:02;8.40;99.90
12166;DHT22;6146;48.128;11.476;2022-11-18T08:52:28;8.50;99.90
12166;DHT22;6146;48.128;11.476;2022-11-18T08:54:53;8.40;99.90
12166;DHT22;6146;48.128;11.476;2022-11-18T08:57:19;8.40;99.90
12166;DHT22;6146;48.128;11.476;2022-11-18T08:59:44;8.40;99.90
12166;DHT22;6146;48.128;11.476;2022-11-18T09:02:14;8.30;99.90
12166;DHT22;6146;48.128;11.476;2022-11-18T09:04:40;8.30;99.90
12166;DHT22;6146;48.128;11.476;2022-11-18T09:07:06;8.20;99.90
12166;DHT22;6146;48.128;11.476;2022-11-18T09:09:31;8.20;99.90
12166;DHT22;6146;48.128;11.476;2022-11-18T09:11:57;8.10;99.90
12166;DHT22;6146;48.128;11.476;2022-11-18T09:14:23;8.10;99.90
12166;DHT22;6146;48.128;11.476;2022-11-18T09:16:48;8.10;99.90
12166;DHT22;6146;48.128;11.476;2022-11-18T09:19:15;8.10;99.90
12166;DHT22;6146;48.128;11.476;2022-11-18T09:21:41;8.00;99.90
12166;DHT22;6146;48.128;11.476;2022-11-18T09:24:07;8.10;99.90
12166;DHT22;6146;48.128;11.476;2022-11-18T09:26:34;8.10;99.90
12166;DHT22;6146;48.128;11.476;2022-11-18T09:29:00;8.10;99.90
12166;DHT22;6146;48.128;11.476;2022-11-18T09:31:26;8.20;99.90
12166;DHT22;6146;48.128;11.476;2022-11-18T09:33:51;8.20;99.90
12166;DHT22;6146;48.128;11.476;2022-11-18T09:36:20;8.30;99.90
12166;DHT22;6146;48.128;11.476;2022-11-18T09:38:46;8.20;99.90
12166;DHT22;6146;48.128;11.476;2022-11-18T09:41:18;8.20;99.90
12166;DHT22;6146;48.128;11.476;2022-11-18T09:51:55;8.20;99.90
12166;DHT22;6146;48.128;11.476;2022-11-18T09:54:29;8.20;99.90
12166;DHT22;6146;48.128;11.476;2022-11-18T09:56:56;8.10;99.90
12166;DHT22;6146;48.128;11.476;2022-11-18T09:59:26;8.10;99.90
12166;DHT22;6146;48.128;11.476;2022-11-18T10:01:55;8.00;99.90
12166;DHT22;6146;48.128;11.476;2022-11-18T10:04:22;8.00;99.90
12166;DHT22;6146;48.128;11.476;2022-11-18T10:06:48;8.00;99.90
12166;DHT22;6146;48.128;11.476;2022-11-18T10:09:36;8.00;99.90
12166;DHT22;6146;48.128;11.476;2022-11-18T10:12:31;8.00;99.90
12166;DHT22;6146;48.128;11.476;2022-11-18T10:18:04;7.90;99.90
12166;DHT22;6146;48.128;11.476;2022-11-18T10:24:03;8.20;99.90
12166;DHT22;6146;48.128;11.476;2022-11-18T10:26:09;8.30;99.90
12166;DHT22;6146;48.128;11.476;2022-11-18T10:28:34;8.40;99.90
12166;DHT22;6146;48.128;11.476;2022-11-18T10:31:06;8.50;99.90
12166;DHT22;6146;48.128;11.476;2022-11-18T10:33:32;8.50;99.90
12166;DHT22;6146;48.128;11.476;2022-11-18T10:36:20;8.40;99.90
12166;DHT22;6146;48.128;11.476;2022-11-18T10:39:08;8.40;99.90
12166;DHT22;6146;48.128;11.476;2022-11-18T10:41:50;8.30;99.90
12166;DHT22;6146;48.128;11.476;2022-11-18T10:46:54;8.10;99.90
12166;DHT22;6146;48.128;11.476;2022-11-18T10:49:19;8.00;99.90
12166;DHT22;6146;48.128;11.476;2022-11-18T10:51:48;7.90;99.90
12166;DHT22;6146;48.128;11.476;2022-11-18T10:54:28;7.90;99.90
12166;DHT22;6146;48.128;11.476;2022-11-18T11:02:29;7.80;99.90
12166;DHT22;6146;48.128;11.476;2022-11-18T11:04:57;7.80;99.90
12166;DHT22;6146;48.128;11.476;2022-11-18T11:12:35;8.10;99.90
12166;DHT22;6146;48.128;11.476;2022-11-18T11:15:13;8.30;99.90
12166;DHT22;6146;48.128;11.476;2022-11-18T11:18:15;8.40;99.90
12166;DHT22;6146;48.128;11.476;2022-11-18T11:21:00;8.50;99.90
12166;DHT22;6146;48.128;11.476;2022-11-18T11:23:25;8.60;99.90
12166;DHT22;6146;48.128;11.476;2022-11-18T11:26:00;8.70;99.90
12166;DHT22;6146;48.128;11.476;2022-11-18T11:31:28;8.80;99.90
12166;DHT22;6146;48.128;11.476;2022-11-18T11:37:08;8.60;99.90
12166;DHT22;6146;48.128;11.476;2022-11-18T11:42:38;8.40;99.90
12166;DHT22;6146;48.128;11.476;2022-11-18T11:45:23;8.20;99.90
12166;DHT22;6146;48.128;11.476;2022-11-18T11:50:49;8.10;99.90
12166;DHT22;6146;48.128;11.476;2022-11-18T11:53:44;8.10;99.90
12166;DHT22;6146;48.128;11.476;2022-11-18T11:56:37;8.10;99.90
12166;DHT22;6146;48.128;11.476;2022-11-18T12:05:16;8.00;99.90
12166;DHT22;6146;48.128;11.476;2022-11-18T12:07:48;8.10;99.90
12166;DHT22;6146;48.128;11.476;2022-11-18T12:26:51;7.80;99.90
12166;DHT22;6146;48.128;11.476;2022-11-18T12:31:43;7.80;99.90
12166;DHT22;6146;48.128;11.476;2022-11-18T12:36:51;7.80;99.90
12166;DHT22;6146;48.128;11.476;2022-11-18T12:44:34;7.70;99.90
12166;DHT22;6146;48.128;11.476;2022-11-18T12:47:02;7.70;99.90
12166;DHT22;6146;48.128;11.476;2022-11-18T12:51:57;7.70;99.90
12166;DHT22;6146;48.128;11.476;2022-11-18T12:54:29;7.70;99.90
12166;DHT22;6146;48.128;11.476;2022-11-18T12:57:12;7.60;99.90
12166;DHT22;6146;48.128;11.476;2022-11-18T12:59:39;7.50;99.90
12166;DHT22;6146;48.128;11.476;2022-11-18T13:04:38;7.50;99.90
12166;DHT22;6146;48.128;11.476;2022-11-18T13:07:06;7.40;99.90
12166;DHT22;6146;48.128;11.476;2022-11-18T13:09:52;7.40;99.90
12166;DHT22;6146;48.128;11.476;2022-11-18T13:12:18;7.40;99.90
12166;DHT22;6146;48.128;11.476;2022-11-18T13:14:44;7.40;99.90
12166;DHT22;6146;48.128;11.476;2022-11-18T13:17:39;7.50;99.90
12166;DHT22;6146;48.128;11.476;2022-11-18T13:20:32;7.40;99.90
12166;DHT22;6146;48.128;11.476;2022-11-18T13:23:27;7.40;99.90
12166;DHT22;6146;48.128;11.476;2022-11-18T13:26:18;7.40;99.90
12166;DHT22;6146;48.128;11.476;2022-11-18T13:31:43;7.40;99.90
12166;DHT22;6146;48.128;11.476;2022-11-18T13:34:22;7.40;99.90
12166;DHT22;6146;48.128;11.476;2022-11-18T13:36:51;7.40;99.90
12166;DHT22;6146;48.128;11.476;2022-11-18T13:39:26;7.40;99.90
12166;DHT22;6146;48.128;11.476;2022-11-18T13:44:36;7.50;99.90
12166;DHT22;6146;48.128;11.476;2022-11-18T13:47:09;7.50;99.90
12166;DHT22;6146;48.128;11.476;2022-11-18T13:52:27;7.50;99.90
12166;DHT22;6146;48.128;11.476;2022-11-18T13:54:55;7.50;99.90
12166;DHT22;6146;48.128;11.476;2022-11-18T13:57:22;7.60;99.90
12166;DHT22;6146;48.128;11.476;2022-11-18T13:59:49;7.60;99.90
12166;DHT22;6146;48.128;11.476;2022-11-18T14:02:16;7.70;99.90
12166;DHT22;6146;48.128;11.476;2022-11-18T14:04:55;7.70;99.90
12166;DHT22;6146;48.128;11.476;2022-11-18T14:07:30;7.70;99.90
12166;DHT22;6146;48.128;11.476;2022-11-18T14:10:02;7.70;99.90
12166;DHT22;6146;48.128;11.476;2022-11-18T14:12:30;7.80;99.90
12166;DHT22;6146;48.128;11.476;2022-11-18T14:17:52;7.90;99.90
12166;DHT22;6146;48.128;11.476;2022-11-18T14:20:19;7.90;99.90
12166;DHT22;6146;48.128;11.476;2022-11-18T14:22:46;7.90;99.90
12166;DHT22;6146;48.128;11.476;2022-11-18T14:25:18;7.90;99.90
12166;DHT22;6146;48.128;11.476;2022-11-18T14:27:56;7.80;99.90
12166;DHT22;6146;48.128;11.476;2022-11-18T14:30:39;7.70;99.90
12166;DHT22;6146;48.128;11.476;2022-11-18T14:33:23;7.60;99.90
12166;DHT22;6146;48.128;11.476;2022-11-18T14:36:00;7.60;99.90
12166;DHT22;6146;48.128;11.476;2022-11-18T14:41:06;7.70;99.90
12166;DHT22;6146;48.128;11.476;2022-11-18T14:43:32;7.70;99.90
12166;DHT22;6146;48.128;11.476;2022-11-18T14:46:20;7.70;99.90
12166;DHT22;6146;48.128;11.476;2022-11-18T14:48:46;7.60;99.90
12166;DHT22;6146;48.128;11.476;2022-11-18T14:51:13;7.50;99.90
12166;DHT22;6146;48.128;11.476;2022-11-18T14:53:40;7.50;99.90
12166;DHT22;6146;48.128;11.476;2022-11-18T14:56:16;7.40;99.90
12166;DHT22;6146;48.128;11.476;2022-11-18T14:58:45;7.40;99.90
12166;DHT22;6146;48.128;11.476;2022-11-18T15:01:11;7.40;99.90
12166;DHT22;6146;48.128;11.476;2022-11-18T15:03:38;7.30;99.90
12166;DHT22;6146;48.128;11.476;2022-11-18T15:06:09;7.20;99.90
12166;DHT22;6146;48.128;11.476;2022-11-18T15:08:36;7.10;99.90
12166;DHT22;6146;48.128;11.476;2022-11-18T15:11:01;7.10;99.90
12166;DHT22;6146;48.128;11.476;2022-11-18T15:13:27;7.00;99.90
12166;DHT22;6146;48.128;11.476;2022-11-18T15:15:53;7.00;99.90
12166;DHT22;6146;48.128;11.476;2022-11-18T15:18:18;7.00;99.90
12166;DHT22;6146;48.128;11.476;2022-11-18T15:20:44;7.00;99.90
12166;DHT22;6146;48.128;11.476;2022-11-18T15:23:09;7.00;99.90
12166;DHT22;6146;48.128;11.476;2022-11-18T15:25:35;6.60;99.90
12166;DHT22;6146;48.128;11.476;2022-11-18T15:28:00;7.00;99.90
12166;DHT22;6146;48.128;11.476;2022-11-18T15:30:26;6.90;99.90
12166;DHT22;6146;48.128;11.476;2022-11-18T15:32:52;6.80;99.90
12166;DHT22;6146;48.128;11.476;2022-11-18T15:35:17;6.90;99.90
12166;DHT22;6146;48.128;11.476;2022-11-18T15:37:43;6.80;99.90
12166;DHT22;6146;48.128;11.476;2022-11-18T15:40:08;6.80;99.90
12166;DHT22;6146;48.128;11.476;2022-11-18T15:42:35;6.70;99.90
12166;DHT22;6146;48.128;11.476;2022-11-18T15:45:01;6.70;99.90
12166;DHT22;6146;48.128;11.476;2022-11-18T15:47:26;6.80;99.90
12166;DHT22;6146;48.128;11.476;2022-11-18T15:49:52;6.80;99.90
12166;DHT22;6146;48.128;11.476;2022-11-18T15:52:18;6.80;99.90
12166;DHT22;6146;48.128;11.476;2022-11-18T15:54:43;6.90;99.90
12166;DHT22;6146;48.128;11.476;2022-11-18T15:57:09;6.80;99.90
12166;DHT22;6146;48.128;11.476;2022-11-18T15:59:35;6.90;99.90
12166;DHT22;6146;48.128;11.476;2022-11-18T16:02:00;6.90;99.90
12166;DHT22;6146;48.128;11.476;2022-11-18T16:04:26;6.90;99.90
12166;DHT22;6146;48.128;11.476;2022-11-18T16:06:52;6.90;99.90
12166;DHT22;6146;48.128;11.476;2022-11-18T16:09:17;6.90;99.90
12166;DHT22;6146;48.128;11.476;2022-11-18T16:11:43;6.90;99.90
12166;DHT22;6146;48.128;11.476;2022-11-18T16:14:27;6.90;99.90
12166;DHT22;6146;48.128;11.476;2022-11-18T16:16:54;6.90;99.90
12166;DHT22;6146;48.128;11.476;2022-11-18T16:19:22;6.90;99.90
12166;DHT22;6146;48.128;11.476;2022-11-18T16:21:51;7.00;99.90
12166;DHT22;6146;48.128;11.476;2022-11-18T16:24:23;6.90;99.90
12166;DHT22;6146;48.128;11.476;2022-11-18T16:26:49;6.90;99.90
12166;DHT22;6146;48.128;11.476;2022-11-18T16:29:15;6.90;99.90
12166;DHT22;6146;48.128;11.476;2022-11-18T16:31:43;6.90;99.90
12166;DHT22;6146;48.128;11.476;2022-11-18T16:34:12;6.90;99.90
12166;DHT22;6146;48.128;11.476;2022-11-18T16:36:40;6.90;99.90
12166;DHT22;6146;48.128;11.476;2022-11-18T16:39:11;7.00;99.90
12166;DHT22;6146;48.128;11.476;2022-11-18T16:41:37;7.00;99.90
12166;DHT22;6146;48.128;11.476;2022-11-18T16:44:05;7.10;99.90
12166;DHT22;6146;48.128;11.476;2022-11-18T16:46:33;7.10;99.90
12166;DHT22;6146;48.128;11.476;2022-11-18T16:48:59;7.20;99.90
12166;DHT22;6146;48.128;11.476;2022-11-18T16:51:27;7.20;99.90
12166;DHT22;6146;48.128;11.476;2022-11-18T16:53:55;7.20;99.90
12166;DHT22;6146;48.128;11.476;2022-11-18T16:56:22;7.20;99.90
12166;DHT22;6146;48.128;11.476;2022-11-18T16:58:48;7.20;99.90
12166;DHT22;6146;48.128;11.476;2022-11-18T17:01:14;7.20;99.90
12166;DHT22;6146;48.128;11.476;2022-11-18T17:03:40;7.20;99.90
12166;DHT22;6146;48.128;11.476;2022-11-18T17:06:07;7.20;99.90
12166;DHT22;6146;48.128;11.476;2022-11-18T17:08:36;7.20;99.90
12166;DHT22;6146;48.128;11.476;2022-11-18T17:11:09;7.10;99.90
12166;DHT22;6146;48.128;11.476;2022-11-18T17:13:36;7.10;99.90
12166;DHT22;6146;48.128;11.476;2022-11-18T17:16:04;7.10;99.90
12166;DHT22;6146;48.128;11.476;2022-11-18T17:18:30;7.10;99.90
12166;DHT22;6146;48.128;11.476;2022-11-18T17:21:00;7.10;99.90
12166;DHT22;6146;48.128;11.476;2022-11-18T17:23:27;7.10;99.90
12166;DHT22;6146;48.128;11.476;2022-11-18T17:25:53;7.10;99.90
12166;DHT22;6146;48.128;11.476;2022-11-18T17:28:18;7.10;99.90
12166;DHT22;6146;48.128;11.476;2022-11-18T17:30:44;7.10;99.90
12166;DHT22;6146;48.128;11.476;2022-11-18T17:33:09;7.10;99.90
12166;DHT22;6146;48.128;11.476;2022-11-18T17:35:35;7.10;99.90
12166;DHT22;6146;48.128;11.476;2022-11-18T17:38:01;7.10;99.90
12166;DHT22;6146;48.128;11.476;2022-11-18T17:40:26;7.10;99.90
12166;DHT22;6146;48.128;11.476;2022-11-18T17:42:52;7.10;99.90
12166;DHT22;6146;48.128;11.476;2022-11-18T17:45:17;7.10;99.90
12166;DHT22;6146;48.128;11.476;2022-11-18T17:47:43;7.10;99.90
12166;DHT22;6146;48.128;11.476;2022-11-18T17:50:09;7.10;99.90